createdAt,value
2018-07-26T00:00:48.109Z,0.00
2018-07-26T00:01:48.091Z,0.00
2018-07-26T00:02:48.022Z,0.00
2018-07-26T00:03:48.009Z,0.00
2018-07-26T00:04:47.992Z,0.00
2018-07-26T00:05:47.963Z,0.00
2018-07-26T00:06:48.004Z,0.00
2018-07-26T00:07:47.921Z,0.00
2018-07-26T00:08:47.895Z,0.00
2018-07-26T00:09:47.879Z,0.00
2018-07-26T00:10:47.865Z,0.00
2018-07-26T00:11:47.900Z,0.00
2018-07-26T00:12:47.805Z,0.00
2018-07-26T00:13:47.837Z,0.00
2018-07-26T00:14:47.770Z,0.00
2018-07-26T00:15:47.746Z,0.00
2018-07-26T00:16:47.776Z,0.00
2018-07-26T00:17:47.704Z,0.00
2018-07-26T00:18:47.679Z,0.00
2018-07-26T00:19:47.659Z,0.00
2018-07-26T00:20:47.634Z,0.00
2018-07-26T00:21:47.659Z,0.00
2018-07-26T00:22:47.594Z,0.00
2018-07-26T00:23:47.895Z,0.00
2018-07-26T00:24:47.549Z,0.00
2018-07-26T00:25:47.532Z,0.00
2018-07-26T00:26:47.501Z,0.00
2018-07-26T00:27:47.479Z,0.00
2018-07-26T00:28:47.503Z,0.00
2018-07-26T00:29:47.436Z,0.00
2018-07-26T00:30:47.416Z,0.00
2018-07-26T00:31:47.397Z,0.00
2018-07-26T00:32:47.369Z,0.00
2018-07-26T00:33:47.407Z,0.00
2018-07-26T00:34:47.329Z,0.00
2018-07-26T00:35:47.305Z,0.00
2018-07-26T00:36:47.283Z,0.00
2018-07-26T00:37:47.257Z,0.00
2018-07-26T00:38:47.283Z,0.00
2018-07-26T00:39:47.223Z,0.00
2018-07-26T00:40:47.241Z,0.00
2018-07-26T00:41:47.174Z,0.00
2018-07-26T00:42:47.152Z,0.00
2018-07-26T00:43:47.130Z,0.00
2018-07-26T00:44:47.107Z,0.00
2018-07-26T00:45:47.138Z,0.00
2018-07-26T00:46:47.068Z,0.00
2018-07-26T00:47:47.052Z,0.00
2018-07-26T00:48:47.074Z,0.00
2018-07-26T00:49:47.002Z,0.00
2018-07-26T00:50:47.027Z,0.00
2018-07-26T00:51:46.949Z,0.00
2018-07-26T00:52:46.926Z,0.00
2018-07-26T00:53:46.914Z,0.00
2018-07-26T00:54:46.915Z,0.00
2018-07-26T00:55:46.929Z,0.00
2018-07-26T00:56:46.840Z,0.00
2018-07-26T00:57:46.815Z,0.00
2018-07-26T00:58:46.794Z,0.00
2018-07-26T00:59:46.775Z,0.00
2018-07-26T01:00:46.810Z,0.00
2018-07-26T01:01:46.725Z,0.00
2018-07-26T01:02:46.721Z,0.00
2018-07-26T01:03:46.682Z,0.00
2018-07-26T01:04:46.660Z,0.00
2018-07-26T01:05:46.675Z,0.00
2018-07-26T01:06:46.661Z,0.00
2018-07-26T01:07:46.603Z,0.00
2018-07-26T01:08:46.567Z,0.00
2018-07-26T01:09:46.559Z,0.00
2018-07-26T01:10:46.528Z,0.00
2018-07-26T01:11:46.547Z,0.00
2018-07-26T01:12:46.485Z,0.00
2018-07-26T01:13:46.463Z,0.00
2018-07-26T01:14:46.447Z,0.00
2018-07-26T01:15:46.449Z,0.00
2018-07-26T01:16:46.466Z,0.00
2018-07-26T01:17:46.365Z,0.00
2018-07-26T01:18:46.347Z,0.00
2018-07-26T01:19:46.323Z,0.00
2018-07-26T01:20:46.304Z,0.00
2018-07-26T01:21:46.326Z,0.00
2018-07-26T01:22:46.264Z,0.00
2018-07-26T01:23:46.237Z,0.00
2018-07-26T01:24:46.218Z,0.00
2018-07-26T01:25:46.193Z,0.00
2018-07-26T01:26:46.212Z,0.00
2018-07-26T01:27:46.143Z,0.00
2018-07-26T01:28:46.117Z,0.00
2018-07-26T01:29:46.094Z,0.00
2018-07-26T01:30:46.090Z,0.00
2018-07-26T01:31:46.119Z,0.00
2018-07-26T01:32:46.037Z,0.00
2018-07-26T01:33:46.013Z,0.00
2018-07-26T01:34:45.987Z,0.00
2018-07-26T01:35:45.958Z,0.00
2018-07-26T01:36:46.005Z,0.00
2018-07-26T01:37:45.925Z,0.00
2018-07-26T01:38:45.899Z,0.00
2018-07-26T01:39:45.879Z,0.00
2018-07-26T01:40:45.855Z,0.00
2018-07-26T01:41:45.908Z,0.00
2018-07-26T01:42:45.808Z,0.00
2018-07-26T01:43:45.780Z,0.00
2018-07-26T01:44:45.800Z,0.00
2018-07-26T01:45:45.733Z,0.00
2018-07-26T01:46:45.716Z,0.00
2018-07-26T01:47:45.738Z,0.00
2018-07-26T01:48:45.667Z,0.00
2018-07-26T01:49:45.641Z,0.00
2018-07-26T01:50:45.621Z,0.00
2018-07-26T01:51:45.598Z,0.00
2018-07-26T01:52:45.615Z,0.00
2018-07-26T01:53:45.555Z,0.00
2018-07-26T01:54:45.571Z,0.00
2018-07-26T01:55:45.506Z,0.00
2018-07-26T01:56:45.484Z,0.00
2018-07-26T01:57:46.364Z,0.00
2018-07-26T01:58:45.437Z,0.00
2018-07-26T01:59:45.514Z,0.00
2018-07-26T02:00:45.386Z,0.00
2018-07-26T02:01:45.410Z,0.00
2018-07-26T02:02:45.347Z,0.00
2018-07-26T02:03:45.330Z,0.00
2018-07-26T02:04:45.344Z,0.00
2018-07-26T02:05:45.279Z,0.00
2018-07-26T02:06:45.257Z,0.00
2018-07-26T02:07:45.229Z,0.00
2018-07-26T02:08:45.265Z,0.00
2018-07-26T02:09:45.246Z,0.00
2018-07-26T02:10:45.164Z,0.00
2018-07-26T02:11:45.138Z,0.00
2018-07-26T02:12:45.120Z,0.00
2018-07-26T02:13:45.089Z,0.00
2018-07-26T02:14:45.116Z,0.00
2018-07-26T02:15:45.044Z,0.00
2018-07-26T02:16:45.022Z,0.00
2018-07-26T02:17:44.996Z,0.00
2018-07-26T02:18:44.975Z,0.00
2018-07-26T02:19:44.996Z,0.00
2018-07-26T02:20:44.930Z,0.00
2018-07-26T02:21:44.904Z,0.00
2018-07-26T02:22:44.881Z,0.00
2018-07-26T02:23:44.859Z,0.00
2018-07-26T02:24:44.879Z,0.00
2018-07-26T02:25:44.864Z,0.00
2018-07-26T02:26:44.802Z,0.00
2018-07-26T02:27:44.767Z,0.00
2018-07-26T02:28:44.747Z,0.00
2018-07-26T02:29:44.724Z,0.00
2018-07-26T02:30:44.767Z,4.00
2018-07-26T02:31:44.681Z,4.00
2018-07-26T02:32:44.650Z,4.00
2018-07-26T02:33:44.630Z,0.00
2018-07-26T02:34:44.606Z,0.00
2018-07-26T02:35:44.625Z,4.00
2018-07-26T02:36:44.693Z,4.00
2018-07-26T02:37:44.532Z,4.00
2018-07-26T02:38:44.517Z,4.00
2018-07-26T02:39:44.496Z,4.00
2018-07-26T02:40:44.464Z,4.00
2018-07-26T02:41:44.497Z,4.00
2018-07-26T02:42:44.425Z,8.00
2018-07-26T02:43:44.396Z,8.00
2018-07-26T02:44:44.373Z,8.00
2018-07-26T02:45:44.354Z,12.00
2018-07-26T02:46:44.381Z,12.00
2018-07-26T02:47:44.301Z,12.00
2018-07-26T02:48:44.872Z,16.00
2018-07-26T02:49:44.260Z,16.00
2018-07-26T02:50:44.236Z,20.00
2018-07-26T02:51:44.253Z,20.00
2018-07-26T02:52:44.181Z,24.00
2018-07-26T02:53:44.163Z,28.00
2018-07-26T02:54:44.136Z,32.00
2018-07-26T02:55:44.118Z,36.00
2018-07-26T02:56:44.134Z,44.00
2018-07-26T02:57:44.107Z,48.00
2018-07-26T02:58:44.044Z,56.00
2018-07-26T02:59:44.021Z,60.00
2018-07-26T03:00:44.007Z,68.00
2018-07-26T03:01:43.976Z,76.00
2018-07-26T03:02:43.999Z,84.00
2018-07-26T03:03:43.935Z,92.00
2018-07-26T03:04:43.900Z,100.00
2018-07-26T03:05:43.881Z,112.00
2018-07-26T03:06:43.855Z,124.00
2018-07-26T03:07:43.900Z,136.00
2018-07-26T03:08:43.852Z,148.00
2018-07-26T03:09:43.781Z,164.00
2018-07-26T03:10:43.757Z,180.00
2018-07-26T03:11:43.734Z,192.00
2018-07-26T03:12:43.710Z,212.00
2018-07-26T03:13:43.736Z,232.00
2018-07-26T03:14:43.661Z,252.00
2018-07-26T03:15:43.646Z,272.00
2018-07-26T03:16:43.620Z,292.00
2018-07-26T03:17:43.598Z,316.00
2018-07-26T03:18:43.613Z,336.00
2018-07-26T03:19:43.545Z,364.00
2018-07-26T03:20:43.520Z,388.00
2018-07-26T03:21:43.503Z,416.00
2018-07-26T03:22:43.480Z,444.00
2018-07-26T03:23:43.493Z,476.00
2018-07-26T03:24:43.481Z,508.00
2018-07-26T03:25:43.404Z,540.00
2018-07-26T03:26:43.375Z,568.00
2018-07-26T03:27:43.357Z,608.00
2018-07-26T03:28:43.348Z,640.00
2018-07-26T03:29:43.432Z,680.00
2018-07-26T03:30:43.401Z,716.00
2018-07-26T03:31:43.260Z,752.00
2018-07-26T03:32:43.355Z,792.00
2018-07-26T03:33:43.334Z,832.00
2018-07-26T03:34:43.351Z,876.00
2018-07-26T03:35:43.381Z,916.00
2018-07-26T03:36:43.147Z,960.00
2018-07-26T03:37:43.134Z,1004.00
2018-07-26T03:38:43.089Z,1048.00
2018-07-26T03:39:43.072Z,1092.00
2018-07-26T03:40:43.092Z,1136.00
2018-07-26T03:41:43.060Z,1184.00
2018-07-26T03:42:42.995Z,1228.00
2018-07-26T03:43:42.973Z,1272.00
2018-07-26T03:44:42.945Z,1320.00
2018-07-26T03:45:42.967Z,1364.00
2018-07-26T03:46:42.898Z,1408.00
2018-07-26T03:47:42.922Z,1452.00
2018-07-26T03:48:42.849Z,1496.00
2018-07-26T03:49:42.826Z,1536.00
2018-07-26T03:50:42.808Z,1580.00
2018-07-26T03:51:42.827Z,1624.00
2018-07-26T03:52:42.887Z,1660.00
2018-07-26T03:53:42.731Z,1704.00
2018-07-26T03:54:42.717Z,1736.00
2018-07-26T03:55:42.698Z,1776.00
2018-07-26T03:56:42.660Z,1820.00
2018-07-26T03:57:42.754Z,1860.00
2018-07-26T03:58:42.613Z,1900.00
2018-07-26T03:59:42.649Z,1932.00
2018-07-26T04:00:43.479Z,1964.00
2018-07-26T04:01:42.643Z,2004.00
2018-07-26T04:02:42.526Z,2092.00
2018-07-26T04:03:42.494Z,2276.00
2018-07-26T04:04:42.472Z,2248.00
2018-07-26T04:05:42.443Z,2156.00
2018-07-26T04:06:42.481Z,2176.00
2018-07-26T04:07:42.404Z,2220.00
2018-07-26T04:08:42.393Z,2240.00
2018-07-26T04:09:42.348Z,2264.00
2018-07-26T04:10:42.336Z,2284.00
2018-07-26T04:11:42.346Z,2312.00
2018-07-26T04:12:42.279Z,2344.00
2018-07-26T04:13:42.301Z,2372.00
2018-07-26T04:14:42.236Z,2404.00
2018-07-26T04:15:42.205Z,2448.00
2018-07-26T04:16:42.460Z,2576.00
2018-07-26T04:17:42.161Z,2592.00
2018-07-26T04:18:42.140Z,2592.00
2018-07-26T04:19:42.112Z,2616.00
2018-07-26T04:20:42.087Z,2828.00
2018-07-26T04:21:42.114Z,3148.00
2018-07-26T04:22:42.099Z,2904.00
2018-07-26T04:23:42.024Z,2724.00
2018-07-26T04:24:42.906Z,2832.00
2018-07-26T04:25:41.977Z,2848.00
2018-07-26T04:26:41.954Z,2912.00
2018-07-26T04:27:41.980Z,2920.00
2018-07-26T04:28:41.909Z,3220.00
2018-07-26T04:29:41.871Z,3076.00
2018-07-26T04:30:41.856Z,3044.00
2018-07-26T04:31:41.890Z,3040.00
2018-07-26T04:32:41.844Z,2948.00
2018-07-26T04:33:41.785Z,2940.00
2018-07-26T04:34:41.812Z,2964.00
2018-07-26T04:35:41.734Z,2996.00
2018-07-26T04:36:41.954Z,3020.00
2018-07-26T04:37:41.680Z,3088.00
2018-07-26T04:38:41.704Z,3100.00
2018-07-26T04:39:41.683Z,3172.00
2018-07-26T04:40:41.613Z,3180.00
2018-07-26T04:41:41.588Z,3204.00
2018-07-26T04:42:41.707Z,3228.00
2018-07-26T04:43:41.543Z,3272.00
2018-07-26T04:44:41.515Z,3312.00
2018-07-26T04:45:41.493Z,3420.00
2018-07-26T04:46:41.472Z,3848.00
2018-07-26T04:47:41.505Z,3796.00
2018-07-26T04:48:41.418Z,3448.00
2018-07-26T04:49:41.397Z,3476.00
2018-07-26T04:50:41.381Z,3520.00
2018-07-26T04:51:41.358Z,3548.00
2018-07-26T04:52:41.382Z,3584.00
2018-07-26T04:53:41.304Z,3632.00
2018-07-26T04:54:41.346Z,3680.00
2018-07-26T04:55:41.261Z,3804.00
2018-07-26T04:56:41.238Z,3888.00
2018-07-26T04:57:41.214Z,3948.00
2018-07-26T04:58:41.189Z,4016.00
2018-07-26T04:59:41.208Z,4300.00
2018-07-26T05:00:41.136Z,5332.00
2018-07-26T05:01:41.118Z,6612.00
2018-07-26T05:02:41.103Z,5948.00
2018-07-26T05:03:41.072Z,4560.00
2018-07-26T05:04:41.105Z,4240.00
2018-07-26T05:05:41.025Z,4536.00
2018-07-26T05:06:40.999Z,4868.00
2018-07-26T05:07:40.975Z,4684.00
2018-07-26T05:08:41.897Z,4204.00
2018-07-26T05:09:40.978Z,4372.00
2018-07-26T05:10:40.954Z,4772.00
2018-07-26T05:11:40.890Z,4388.00
2018-07-26T05:12:40.862Z,5088.00
2018-07-26T05:13:40.844Z,9916.00
2018-07-26T05:14:40.816Z,12136.00
2018-07-26T05:15:40.840Z,8072.00
2018-07-26T05:16:40.774Z,5308.00
2018-07-26T05:17:40.751Z,5620.00
2018-07-26T05:18:40.770Z,6744.00
2018-07-26T05:19:40.701Z,7228.00
2018-07-26T05:20:40.675Z,7040.00
2018-07-26T05:21:40.704Z,10244.00
2018-07-26T05:22:40.630Z,13892.00
2018-07-26T05:23:40.660Z,15432.00
2018-07-26T05:24:40.591Z,11968.00
2018-07-26T05:25:40.614Z,6176.00
2018-07-26T05:26:40.545Z,4972.00
2018-07-26T05:27:40.591Z,7256.00
2018-07-26T05:28:40.559Z,7900.00
2018-07-26T05:29:40.478Z,6004.00
2018-07-26T05:30:40.464Z,5532.00
2018-07-26T05:31:40.436Z,6036.00
2018-07-26T05:32:40.413Z,5800.00
2018-07-26T05:33:40.438Z,4764.00
2018-07-26T05:34:40.372Z,4660.00
2018-07-26T05:35:40.355Z,4716.00
2018-07-26T05:36:40.330Z,4632.00
2018-07-26T05:37:40.351Z,4584.00
2018-07-26T05:38:40.310Z,4628.00
2018-07-26T05:39:40.267Z,4632.00
2018-07-26T05:40:40.244Z,4704.00
2018-07-26T05:41:40.266Z,4696.00
2018-07-26T05:42:40.206Z,4756.00
2018-07-26T05:43:40.184Z,4724.00
2018-07-26T05:44:40.165Z,4684.00
2018-07-26T05:45:40.142Z,4692.00
2018-07-26T05:46:40.178Z,4708.00
2018-07-26T05:47:40.096Z,4728.00
2018-07-26T05:48:40.074Z,4744.00
2018-07-26T05:49:40.058Z,4784.00
2018-07-26T05:50:40.035Z,4804.00
2018-07-26T05:51:40.562Z,4792.00
2018-07-26T05:52:39.989Z,4796.00
2018-07-26T05:53:39.971Z,4808.00
2018-07-26T05:54:39.949Z,4832.00
2018-07-26T05:55:39.930Z,4840.00
2018-07-26T05:56:39.959Z,4856.00
2018-07-26T05:57:39.884Z,4876.00
2018-07-26T05:58:39.863Z,4888.00
2018-07-26T05:59:39.886Z,4904.00
2018-07-26T06:00:39.822Z,4920.00
2018-07-26T06:01:39.802Z,4936.00
2018-07-26T06:02:39.840Z,4936.00
2018-07-26T06:03:39.758Z,4928.00
2018-07-26T06:04:39.734Z,4932.00
2018-07-26T06:05:39.713Z,4944.00
2018-07-26T06:06:39.710Z,4948.00
2018-07-26T06:07:39.719Z,4956.00
2018-07-26T06:08:39.653Z,4964.00
2018-07-26T06:09:39.656Z,4964.00
2018-07-26T06:10:39.612Z,4968.00
2018-07-26T06:11:39.595Z,4976.00
2018-07-26T06:12:39.607Z,4984.00
2018-07-26T06:13:39.549Z,4984.00
2018-07-26T06:14:39.524Z,4984.00
2018-07-26T06:15:39.556Z,4988.00
2018-07-26T06:16:39.482Z,4992.00
2018-07-26T06:17:39.463Z,5000.00
2018-07-26T06:18:39.445Z,5008.00
2018-07-26T06:19:39.472Z,5012.00
2018-07-26T06:20:39.428Z,5016.00
2018-07-26T06:21:39.394Z,5024.00
2018-07-26T06:22:39.424Z,5032.00
2018-07-26T06:23:39.336Z,5048.00
2018-07-26T06:24:39.316Z,5060.00
2018-07-26T06:25:39.300Z,5076.00
2018-07-26T06:26:39.273Z,5088.00
2018-07-26T06:27:39.297Z,5100.00
2018-07-26T06:28:39.308Z,5108.00
2018-07-26T06:29:39.259Z,5112.00
2018-07-26T06:30:39.199Z,5116.00
2018-07-26T06:31:39.172Z,5120.00
2018-07-26T06:32:39.151Z,5132.00
2018-07-26T06:33:39.249Z,5140.00
2018-07-26T06:34:39.167Z,5152.00
2018-07-26T06:35:39.093Z,5160.00
2018-07-26T06:36:39.068Z,5160.00
2018-07-26T06:37:39.053Z,5160.00
2018-07-26T06:38:39.049Z,5160.00
2018-07-26T06:39:39.055Z,5172.00
2018-07-26T06:40:38.993Z,5180.00
2018-07-26T06:41:38.965Z,5196.00
2018-07-26T06:42:38.951Z,5200.00
2018-07-26T06:43:38.964Z,5204.00
2018-07-26T06:44:38.958Z,5208.00
2018-07-26T06:45:38.888Z,5216.00
2018-07-26T06:46:38.868Z,5224.00
2018-07-26T06:47:38.844Z,5228.00
2018-07-26T06:48:38.828Z,5236.00
2018-07-26T06:49:38.850Z,5244.00
2018-07-26T06:50:38.839Z,5252.00
2018-07-26T06:51:38.766Z,5268.00
2018-07-26T06:52:38.746Z,5276.00
2018-07-26T06:53:38.726Z,5284.00
2018-07-26T06:54:38.752Z,5292.00
2018-07-26T06:55:38.683Z,5288.00
2018-07-26T06:56:38.713Z,5292.00
2018-07-26T06:57:38.645Z,5288.00
2018-07-26T06:58:39.424Z,5284.00
2018-07-26T06:59:38.649Z,5296.00
2018-07-26T07:00:38.634Z,5284.00
2018-07-26T07:01:38.562Z,5288.00
2018-07-26T07:02:38.550Z,5292.00
2018-07-26T07:03:38.547Z,5292.00
2018-07-26T07:04:38.507Z,5304.00
2018-07-26T07:05:38.533Z,5304.00
2018-07-26T07:06:38.461Z,5312.00
2018-07-26T07:07:38.447Z,5308.00
2018-07-26T07:08:38.427Z,5308.00
2018-07-26T07:09:38.408Z,5316.00
2018-07-26T07:10:38.432Z,5324.00
2018-07-26T07:11:38.365Z,5328.00
2018-07-26T07:12:38.342Z,5336.00
2018-07-26T07:13:38.406Z,5344.00
2018-07-26T07:14:38.304Z,5356.00
2018-07-26T07:15:38.359Z,5368.00
2018-07-26T07:16:38.266Z,5380.00
2018-07-26T07:17:38.246Z,5400.00
2018-07-26T07:18:38.228Z,5420.00
2018-07-26T07:19:38.209Z,5436.00
2018-07-26T07:20:38.330Z,5440.00
2018-07-26T07:21:38.167Z,5444.00
2018-07-26T07:22:38.147Z,5448.00
2018-07-26T07:23:38.132Z,5452.00
2018-07-26T07:24:38.107Z,5468.00
2018-07-26T07:25:38.146Z,5476.00
2018-07-26T07:26:38.092Z,5476.00
2018-07-26T07:27:38.112Z,5468.00
2018-07-26T07:28:38.077Z,5452.00
2018-07-26T07:29:38.018Z,5436.00
2018-07-26T07:30:37.992Z,5420.00
2018-07-26T07:31:37.970Z,5404.00
2018-07-26T07:32:37.952Z,5408.00
2018-07-26T07:33:37.957Z,5408.00
2018-07-26T07:34:37.932Z,5404.00
2018-07-26T07:35:37.896Z,5400.00
2018-07-26T07:36:37.873Z,5392.00
2018-07-26T07:37:37.856Z,5360.00
2018-07-26T07:38:37.840Z,5348.00
2018-07-26T07:39:37.865Z,5360.00
2018-07-26T07:40:37.796Z,5364.00
2018-07-26T07:41:37.778Z,5340.00
2018-07-26T07:42:37.766Z,5328.00
2018-07-26T07:43:37.788Z,5324.00
2018-07-26T07:44:37.726Z,5324.00
2018-07-26T07:45:37.755Z,5320.00
2018-07-26T07:46:37.724Z,5312.00
2018-07-26T07:47:37.741Z,5296.00
2018-07-26T07:48:37.688Z,5276.00
2018-07-26T07:49:37.622Z,5264.00
2018-07-26T07:50:37.604Z,5264.00
2018-07-26T07:51:37.594Z,5264.00
2018-07-26T07:52:37.635Z,5228.00
2018-07-26T07:53:37.546Z,5212.00
2018-07-26T07:54:37.529Z,5212.00
2018-07-26T07:55:37.509Z,5184.00
2018-07-26T07:56:37.486Z,5156.00
2018-07-26T07:57:37.535Z,5148.00
2018-07-26T07:58:37.464Z,5140.00
2018-07-26T07:59:37.452Z,5120.00
2018-07-26T08:00:37.413Z,5108.00
2018-07-26T08:01:37.395Z,5124.00
2018-07-26T08:02:37.424Z,5144.00
2018-07-26T08:03:37.360Z,5148.00
2018-07-26T08:04:37.397Z,5132.00
2018-07-26T08:05:37.319Z,5152.00
2018-07-26T08:06:37.313Z,5156.00
2018-07-26T08:07:37.289Z,5160.00
2018-07-26T08:08:37.262Z,5164.00
2018-07-26T08:09:37.310Z,5168.00
2018-07-26T08:10:37.228Z,5168.00
2018-07-26T08:11:37.208Z,5176.00
2018-07-26T08:12:37.209Z,5180.00
2018-07-26T08:13:37.168Z,5152.00
2018-07-26T08:14:37.206Z,5144.00
2018-07-26T08:15:37.134Z,5136.00
2018-07-26T08:16:37.111Z,5144.00
2018-07-26T08:17:37.098Z,5152.00
2018-07-26T08:18:37.077Z,5144.00
2018-07-26T08:19:37.099Z,5144.00
2018-07-26T08:20:37.038Z,5124.00
2018-07-26T08:21:37.017Z,5136.00
2018-07-26T08:22:36.997Z,5176.00
2018-07-26T08:23:36.981Z,5192.00
2018-07-26T08:24:37.009Z,5208.00
2018-07-26T08:25:36.988Z,5220.00
2018-07-26T08:26:36.922Z,5208.00
2018-07-26T08:27:36.910Z,5192.00
2018-07-26T08:28:36.890Z,5192.00
2018-07-26T08:29:36.882Z,5168.00
2018-07-26T08:30:36.892Z,5168.00
2018-07-26T08:31:36.885Z,5188.00
2018-07-26T08:32:36.811Z,5172.00
2018-07-26T08:33:36.803Z,5160.00
2018-07-26T08:34:36.778Z,5144.00
2018-07-26T08:35:36.757Z,5180.00
2018-07-26T08:36:36.791Z,5160.00
2018-07-26T08:37:36.724Z,5136.00
2018-07-26T08:38:36.702Z,5140.00
2018-07-26T08:39:36.682Z,5116.00
2018-07-26T08:40:36.669Z,5096.00
2018-07-26T08:41:36.703Z,5084.00
2018-07-26T08:42:36.629Z,5072.00
2018-07-26T08:43:36.617Z,5060.00
2018-07-26T08:44:36.595Z,5032.00
2018-07-26T08:45:36.579Z,5000.00
2018-07-26T08:46:36.604Z,4956.00
2018-07-26T08:47:36.538Z,4916.00
2018-07-26T08:48:36.563Z,4876.00
2018-07-26T08:49:36.502Z,4860.00
2018-07-26T08:50:36.486Z,4872.00
2018-07-26T08:51:36.465Z,4900.00
2018-07-26T08:52:36.497Z,4920.00
2018-07-26T08:53:36.432Z,4948.00
2018-07-26T08:54:36.413Z,4956.00
2018-07-26T08:55:36.393Z,4936.00
2018-07-26T08:56:36.377Z,4900.00
2018-07-26T08:57:36.408Z,4868.00
2018-07-26T08:58:36.388Z,4852.00
2018-07-26T08:59:36.468Z,4856.00
2018-07-26T09:00:36.322Z,4868.00
2018-07-26T09:01:36.294Z,4888.00
2018-07-26T09:02:36.317Z,4904.00
2018-07-26T09:03:36.269Z,4940.00
2018-07-26T09:04:36.289Z,4976.00
2018-07-26T09:05:36.227Z,4984.00
2018-07-26T09:06:36.196Z,4964.00
2018-07-26T09:07:36.187Z,4948.00
2018-07-26T09:08:36.161Z,4964.00
2018-07-26T09:09:36.223Z,4960.00
2018-07-26T09:10:36.133Z,4944.00
2018-07-26T09:11:36.150Z,4928.00
2018-07-26T09:12:36.094Z,4916.00
2018-07-26T09:13:36.601Z,4900.00
2018-07-26T09:14:36.058Z,4856.00
2018-07-26T09:15:36.041Z,4804.00
2018-07-26T09:16:36.063Z,4780.00
2018-07-26T09:17:36.010Z,4788.00
2018-07-26T09:18:36.024Z,4856.00
2018-07-26T09:19:35.971Z,4896.00
2018-07-26T09:20:35.987Z,4928.00
2018-07-26T09:21:35.925Z,4968.00
2018-07-26T09:22:35.906Z,5000.00
2018-07-26T09:23:35.892Z,5016.00
2018-07-26T09:24:35.927Z,5044.00
2018-07-26T09:25:35.909Z,5076.00
2018-07-26T09:26:35.841Z,5088.00
2018-07-26T09:27:35.822Z,5080.00
2018-07-26T09:28:35.800Z,5080.00
2018-07-26T09:29:35.783Z,5104.00
2018-07-26T09:30:35.815Z,5164.00
2018-07-26T09:31:35.751Z,5380.00
2018-07-26T09:32:35.780Z,5472.00
2018-07-26T09:33:35.718Z,5028.00
2018-07-26T09:34:35.707Z,4884.00
2018-07-26T09:35:35.726Z,4800.00
2018-07-26T09:36:35.701Z,4764.00
2018-07-26T09:37:35.641Z,4780.00
2018-07-26T09:38:35.676Z,4808.00
2018-07-26T09:39:35.605Z,4792.00
2018-07-26T09:40:35.642Z,4784.00
2018-07-26T09:41:35.577Z,4776.00
2018-07-26T09:42:35.556Z,4768.00
2018-07-26T09:43:35.587Z,4756.00
2018-07-26T09:44:35.516Z,4748.00
2018-07-26T09:45:35.501Z,4736.00
2018-07-26T09:46:35.481Z,4744.00
2018-07-26T09:47:35.464Z,4740.00
2018-07-26T09:48:35.494Z,4736.00
2018-07-26T09:49:35.475Z,4752.00
2018-07-26T09:50:35.413Z,4792.00
2018-07-26T09:51:35.395Z,4832.00
2018-07-26T09:52:35.420Z,4852.00
2018-07-26T09:53:35.359Z,4844.00
2018-07-26T09:54:35.388Z,4848.00
2018-07-26T09:55:35.323Z,4840.00
2018-07-26T09:56:35.305Z,4824.00
2018-07-26T09:57:35.294Z,4836.00
2018-07-26T09:58:35.279Z,4836.00
2018-07-26T09:59:35.312Z,4816.00
2018-07-26T10:00:35.240Z,4804.00
2018-07-26T10:01:35.216Z,4816.00
2018-07-26T10:02:35.201Z,4840.00
2018-07-26T10:03:35.184Z,4860.00
2018-07-26T10:04:35.212Z,4880.00
2018-07-26T10:05:35.149Z,4888.00
2018-07-26T10:06:35.177Z,4864.00
2018-07-26T10:07:35.174Z,4844.00
2018-07-26T10:08:35.104Z,4852.00
2018-07-26T10:09:35.080Z,4916.00
2018-07-26T10:10:35.061Z,5028.00
2018-07-26T10:11:35.048Z,5060.00
2018-07-26T10:12:35.088Z,5056.00
2018-07-26T10:13:35.012Z,5064.00
2018-07-26T10:14:34.990Z,5088.00
2018-07-26T10:15:34.980Z,5032.00
2018-07-26T10:16:34.959Z,4992.00
2018-07-26T10:17:34.986Z,4964.00
2018-07-26T10:18:34.927Z,4912.00
2018-07-26T10:19:34.912Z,4888.00
2018-07-26T10:20:34.893Z,4888.00
2018-07-26T10:21:34.931Z,4884.00
2018-07-26T10:22:34.910Z,4900.00
2018-07-26T10:23:34.836Z,4936.00
2018-07-26T10:24:34.822Z,4940.00
2018-07-26T10:25:34.810Z,4988.00
2018-07-26T10:26:34.791Z,5028.00
2018-07-26T10:27:34.837Z,5052.00
2018-07-26T10:28:34.751Z,5056.00
2018-07-26T10:29:34.736Z,5072.00
2018-07-26T10:30:34.719Z,5120.00
2018-07-26T10:31:34.700Z,5156.00
2018-07-26T10:32:34.730Z,5176.00
2018-07-26T10:33:34.680Z,5152.00
2018-07-26T10:34:34.650Z,5112.00
2018-07-26T10:35:34.676Z,5112.00
2018-07-26T10:36:34.612Z,5112.00
2018-07-26T10:37:34.604Z,5100.00
2018-07-26T10:38:34.627Z,5080.00
2018-07-26T10:39:34.564Z,5052.00
2018-07-26T10:40:34.607Z,5032.00
2018-07-26T10:41:34.529Z,5048.00
2018-07-26T10:42:34.511Z,5076.00
2018-07-26T10:43:34.496Z,5096.00
2018-07-26T10:44:34.540Z,5100.00
2018-07-26T10:45:34.506Z,5100.00
2018-07-26T10:46:34.443Z,5100.00
2018-07-26T10:47:34.432Z,5112.00
2018-07-26T10:48:34.455Z,5120.00
2018-07-26T10:49:34.395Z,5180.00
2018-07-26T10:50:34.380Z,5092.00
2018-07-26T10:51:34.360Z,5052.00
2018-07-26T10:52:34.345Z,5004.00
2018-07-26T10:53:34.381Z,4968.00
2018-07-26T10:54:34.316Z,4956.00
2018-07-26T10:55:34.292Z,4944.00
2018-07-26T10:56:34.277Z,4952.00
2018-07-26T10:57:34.258Z,4968.00
2018-07-26T10:58:34.296Z,4984.00
2018-07-26T10:59:34.224Z,4992.00
2018-07-26T11:00:34.258Z,5000.00
2018-07-26T11:01:34.235Z,4992.00
2018-07-26T11:02:34.175Z,4976.00
2018-07-26T11:03:34.159Z,4964.00
2018-07-26T11:04:34.142Z,4952.00
2018-07-26T11:05:34.127Z,4940.00
2018-07-26T11:06:34.159Z,4936.00
2018-07-26T11:07:34.095Z,4952.00
2018-07-26T11:08:34.078Z,4968.00
2018-07-26T11:09:34.115Z,4972.00
2018-07-26T11:10:34.044Z,4956.00
2018-07-26T11:11:34.077Z,4940.00
2018-07-26T11:12:34.008Z,4940.00
2018-07-26T11:13:33.992Z,4928.00
2018-07-26T11:14:33.976Z,4928.00
2018-07-26T11:15:33.960Z,4904.00
2018-07-26T11:16:34.007Z,4888.00
2018-07-26T11:17:33.931Z,4872.00
2018-07-26T11:18:33.913Z,4864.00
2018-07-26T11:19:33.895Z,4840.00
2018-07-26T11:20:33.926Z,4816.00
2018-07-26T11:21:33.908Z,4796.00
2018-07-26T11:22:33.845Z,4776.00
2018-07-26T11:23:33.830Z,4776.00
2018-07-26T11:24:33.812Z,4772.00
2018-07-26T11:25:33.799Z,4752.00
2018-07-26T11:26:33.833Z,4740.00
2018-07-26T11:27:33.768Z,4712.00
2018-07-26T11:28:33.746Z,4712.00
2018-07-26T11:29:33.784Z,4712.00
2018-07-26T11:30:33.714Z,4740.00
2018-07-26T11:31:33.748Z,4748.00
2018-07-26T11:32:33.724Z,4748.00
2018-07-26T11:33:33.671Z,4756.00
2018-07-26T11:34:33.659Z,4748.00
2018-07-26T11:35:33.636Z,4712.00
2018-07-26T11:36:33.664Z,4680.00
2018-07-26T11:37:33.603Z,4684.00
2018-07-26T11:38:33.659Z,4680.00
2018-07-26T11:39:33.567Z,4676.00
2018-07-26T11:40:33.555Z,4680.00
2018-07-26T11:41:33.581Z,4696.00
2018-07-26T11:42:33.531Z,4716.00
2018-07-26T11:43:33.591Z,4752.00
2018-07-26T11:44:33.485Z,4760.00
2018-07-26T11:45:33.485Z,4776.00
2018-07-26T11:46:33.453Z,4780.00
2018-07-26T11:47:33.451Z,4772.00
2018-07-26T11:48:33.567Z,4764.00
2018-07-26T11:49:33.403Z,4760.00
2018-07-26T11:50:33.389Z,4764.00
2018-07-26T11:51:33.377Z,4776.00
2018-07-26T11:52:33.357Z,4776.00
2018-07-26T11:53:33.380Z,4784.00
2018-07-26T11:54:33.323Z,4788.00
2018-07-26T11:55:33.311Z,4792.00
2018-07-26T11:56:33.292Z,4788.00
2018-07-26T11:57:33.280Z,4784.00
2018-07-26T11:58:33.307Z,4796.00
2018-07-26T11:59:33.246Z,4808.00
2018-07-26T12:00:33.229Z,4812.00
2018-07-26T12:01:33.247Z,4828.00
2018-07-26T12:02:33.264Z,4836.00
2018-07-26T12:03:33.220Z,4824.00
2018-07-26T12:04:33.206Z,4800.00
2018-07-26T12:05:33.146Z,4748.00
2018-07-26T12:06:33.127Z,4700.00
2018-07-26T12:07:33.113Z,4680.00
2018-07-26T12:08:33.101Z,4632.00
2018-07-26T12:09:33.130Z,4632.00
2018-07-26T12:10:33.067Z,4664.00
2018-07-26T12:11:33.050Z,4696.00
2018-07-26T12:12:33.034Z,4700.00
2018-07-26T12:13:33.019Z,4708.00
2018-07-26T12:14:33.054Z,4708.00
2018-07-26T12:15:32.983Z,4684.00
2018-07-26T12:16:32.977Z,4688.00
2018-07-26T12:17:32.975Z,4684.00
2018-07-26T12:18:32.972Z,4708.00
2018-07-26T12:19:32.968Z,4728.00
2018-07-26T12:20:32.902Z,4732.00
2018-07-26T12:21:32.887Z,4728.00
2018-07-26T12:22:32.919Z,4720.00